Newmarket, Canada
Current Conditions -  °F | °C
As of 3:00 PM on Saturday 25 Oct 2014 (Local Time) from CYKZ Reporting Station
Broken Clouds Broken Clouds  
Wind Chill: 59°   Ceiling: 2300
Heat Index: 59°   Visibility: 12mi
Dew Point: 50°   Wind: 6mph
Humidity: 72%   Direction: 270°W
Pressure: 29.6"   Gusts: NA
Location:  44.04°N, 79.46°W
Report Text: CYKZ 251900Z 27005KT 12SM BKN023 15/10 A2960 RMK SC5 SLP026
Loading
Personal Weather Stations






























Interactive Weather Map
Tropical Storm Tracking
New forecast layout! Learn more

10-Day Weather Forecast

Advertisements
Track Severe Weather on mobile